sensor_id;sensor_type;location;lat;lon;timestamp;temperature;humidity
336;DHT22;156;48.738;9.228;2022-11-20T02:26:15;4.60;65.60
336;DHT22;156;48.738;9.228;2022-11-20T02:29:38;4.70;66.50
336;DHT22;156;48.738;9.228;2022-11-20T02:34:03;4.70;64.30
336;DHT22;156;48.738;9.228;2022-11-20T02:39:38;4.60;72.40
336;DHT22;156;48.738;9.228;2022-11-20T02:49:28;4.50;80.50
336;DHT22;156;48.738;9.228;2022-11-20T02:54:05;4.60;84.20
336;DHT22;156;48.738;9.228;2022-11-20T02:57:12;4.60;81.00
336;DHT22;156;48.738;9.228;2022-11-20T03:10:22;4.50;86.70
336;DHT22;156;48.738;9.228;2022-11-20T03:25:25;4.60;90.60
336;DHT22;156;48.738;9.228;2022-11-20T03:38:23;4.50;82.70
336;DHT22;156;48.738;9.228;2022-11-20T03:41:57;4.50;82.40
336;DHT22;156;48.738;9.228;2022-11-20T03:45:08;4.60;80.70
336;DHT22;156;48.738;9.228;2022-11-20T03:58:53;4.40;80.50
336;DHT22;156;48.738;9.228;2022-11-20T09:20:18;6.10;40.60
336;DHT22;156;48.738;9.228;2022-11-20T10:19:22;6.50;12.30
336;DHT22;156;48.738;9.228;2022-11-20T10:22:38;6.30;18.00
336;DHT22;156;48.738;9.228;2022-11-20T10:25:14;6.40;18.20
336;DHT22;156;48.738;9.228;2022-11-20T10:30:46;6.40;22.30
336;DHT22;156;48.738;9.228;2022-11-20T10:33:18;6.40;21.90
336;DHT22;156;48.738;9.228;2022-11-20T10:36:00;6.40;23.50
336;DHT22;156;48.738;9.228;2022-11-20T10:38:37;6.40;27.90
336;DHT22;156;48.738;9.228;2022-11-20T10:41:06;6.20;39.80
336;DHT22;156;48.738;9.228;2022-11-20T10:43:57;6.30;51.10
336;DHT22;156;48.738;9.228;2022-11-20T10:46:33;6.30;57.50
336;DHT22;156;48.738;9.228;2022-11-20T10:49:12;6.20;65.30
336;DHT22;156;48.738;9.228;2022-11-20T10:51:50;6.10;65.20
336;DHT22;156;48.738;9.228;2022-11-20T10:54:23;6.00;73.80
336;DHT22;156;48.738;9.228;2022-11-20T10:57:01;6.00;76.60
336;DHT22;156;48.738;9.228;2022-11-20T10:59:49;6.00;79.60
336;DHT22;156;48.738;9.228;2022-11-20T11:02:20;6.00;79.80
336;DHT22;156;48.738;9.228;2022-11-20T11:04:48;5.90;79.10
336;DHT22;156;48.738;9.228;2022-11-20T11:30:45;6.20;91.60
336;DHT22;156;48.738;9.228;2022-11-20T11:33:37;6.40;82.80
336;DHT22;156;48.738;9.228;2022-11-20T11:36:24;6.50;80.50
336;DHT22;156;48.738;9.228;2022-11-20T11:38:56;6.60;65.50
336;DHT22;156;48.738;9.228;2022-11-20T11:44:48;7.60;36.70
336;DHT22;156;48.738;9.228;2022-11-20T11:47:56;7.90;15.50
336;DHT22;156;48.738;9.228;2022-11-20T11:50:47;8.10;1.00
336;DHT22;156;48.738;9.228;2022-11-20T11:54:00;8.10;1.00
336;DHT22;156;48.738;9.228;2022-11-20T11:56:29;8.60;1.00
336;DHT22;156;48.738;9.228;2022-11-20T11:59:25;9.10;1.00
336;DHT22;156;48.738;9.228;2022-11-20T12:02:25;9.30;1.00
336;DHT22;156;48.738;9.228;2022-11-20T12:05:03;9.30;1.00
336;DHT22;156;48.738;9.228;2022-11-20T12:07:39;9.30;1.00
336;DHT22;156;48.738;9.228;2022-11-20T12:10:20;9.30;1.00
336;DHT22;156;48.738;9.228;2022-11-20T12:13:04;9.10;1.00
336;DHT22;156;48.738;9.228;2022-11-20T12:15:49;9.40;1.00
336;DHT22;156;48.738;9.228;2022-11-20T12:18:30;9.20;1.00
336;DHT22;156;48.738;9.228;2022-11-20T12:24:16;8.60;1.00
336;DHT22;156;48.738;9.228;2022-11-20T12:26:58;8.60;1.00
336;DHT22;156;48.738;9.228;2022-11-20T12:29:42;8.90;1.00
336;DHT22;156;48.738;9.228;2022-11-20T12:35:58;8.20;1.00
336;DHT22;156;48.738;9.228;2022-11-20T12:38:45;8.00;1.00
336;DHT22;156;48.738;9.228;2022-11-20T12:41:58;7.80;1.00
336;DHT22;156;48.738;9.228;2022-11-20T12:45:34;7.70;1.00
336;DHT22;156;48.738;9.228;2022-11-20T12:51:18;8.00;1.00
336;DHT22;156;48.738;9.228;2022-11-20T12:54:06;8.00;1.00
336;DHT22;156;48.738;9.228;2022-11-20T12:56:43;7.90;1.00
336;DHT22;156;48.738;9.228;2022-11-20T12:59:28;8.00;1.00
336;DHT22;156;48.738;9.228;2022-11-20T13:02:01;7.90;1.00
336;DHT22;156;48.738;9.228;2022-11-20T13:04:46;8.10;1.00
336;DHT22;156;48.738;9.228;2022-11-20T13:07:16;8.40;1.00
336;DHT22;156;48.738;9.228;2022-11-20T13:09:50;8.70;1.00
336;DHT22;156;48.738;9.228;2022-11-20T13:12:24;9.00;1.00
336;DHT22;156;48.738;9.228;2022-11-20T13:14:57;9.00;1.00
336;DHT22;156;48.738;9.228;2022-11-20T14:40:40;7.20;1.00
336;DHT22;156;48.738;9.228;2022-11-20T14:43:18;7.00;1.00
336;DHT22;156;48.738;9.228;2022-11-20T14:45:47;7.00;1.00
336;DHT22;156;48.738;9.228;2022-11-20T14:51:44;7.20;1.00
336;DHT22;156;48.738;9.228;2022-11-20T14:54:29;7.20;1.00
336;DHT22;156;48.738;9.228;2022-11-20T14:57:01;7.10;1.00
336;DHT22;156;48.738;9.228;2022-11-20T14:59:30;6.90;1.00
336;DHT22;156;48.738;9.228;2022-11-20T15:02:00;6.80;1.00
336;DHT22;156;48.738;9.228;2022-11-20T15:04:27;6.80;1.00
336;DHT22;156;48.738;9.228;2022-11-20T15:06:57;6.80;1.00
336;DHT22;156;48.738;9.228;2022-11-20T15:09:27;6.80;1.00
336;DHT22;156;48.738;9.228;2022-11-20T15:11:55;6.80;1.00
336;DHT22;156;48.738;9.228;2022-11-20T15:14:26;6.60;1.00
336;DHT22;156;48.738;9.228;2022-11-20T15:16:54;6.70;1.00
336;DHT22;156;48.738;9.228;2022-11-20T15:19:23;6.60;1.00
336;DHT22;156;48.738;9.228;2022-11-20T15:21:50;6.60;1.00
336;DHT22;156;48.738;9.228;2022-11-20T15:24:17;6.60;1.00
336;DHT22;156;48.738;9.228;2022-11-20T15:26:45;6.50;1.00
336;DHT22;156;48.738;9.228;2022-11-20T15:29:14;6.30;1.00
336;DHT22;156;48.738;9.228;2022-11-20T15:31:45;6.30;1.00
336;DHT22;156;48.738;9.228;2022-11-20T15:34:13;6.20;1.00
336;DHT22;156;48.738;9.228;2022-11-20T15:36:41;6.20;1.00
336;DHT22;156;48.738;9.228;2022-11-20T15:39:09;6.30;1.00
336;DHT22;156;48.738;9.228;2022-11-20T15:41:37;6.20;1.00
336;DHT22;156;48.738;9.228;2022-11-20T15:44:04;6.20;1.00
336;DHT22;156;48.738;9.228;2022-11-20T15:46:33;6.20;1.00
336;DHT22;156;48.738;9.228;2022-11-20T15:49:06;6.20;1.00
336;DHT22;156;48.738;9.228;2022-11-20T15:51:36;6.10;1.00
336;DHT22;156;48.738;9.228;2022-11-20T15:54:10;6.20;1.00
336;DHT22;156;48.738;9.228;2022-11-20T15:56:37;6.20;1.00
336;DHT22;156;48.738;9.228;2022-11-20T15:59:05;6.10;1.00
336;DHT22;156;48.738;9.228;2022-11-20T16:01:32;6.10;1.00
336;DHT22;156;48.738;9.228;2022-11-20T16:03:59;6.10;1.00
336;DHT22;156;48.738;9.228;2022-11-20T16:06:29;6.00;1.00
336;DHT22;156;48.738;9.228;2022-11-20T16:08:57;6.10;1.00
336;DHT22;156;48.738;9.228;2022-11-20T16:11:24;6.10;1.00
336;DHT22;156;48.738;9.228;2022-11-20T16:13:51;6.00;1.00
336;DHT22;156;48.738;9.228;2022-11-20T16:16:37;6.00;1.00
336;DHT22;156;48.738;9.228;2022-11-20T16:19:10;6.00;1.00
336;DHT22;156;48.738;9.228;2022-11-20T16:21:39;6.00;3.00
336;DHT22;156;48.738;9.228;2022-11-20T16:24:12;6.00;3.40
336;DHT22;156;48.738;9.228;2022-11-20T16:26:50;6.00;4.70
336;DHT22;156;48.738;9.228;2022-11-20T16:29:19;5.90;6.50
336;DHT22;156;48.738;9.228;2022-11-20T16:31:47;6.00;6.90
336;DHT22;156;48.738;9.228;2022-11-20T16:34:16;6.00;8.20
336;DHT22;156;48.738;9.228;2022-11-20T16:36:45;6.00;8.30
336;DHT22;156;48.738;9.228;2022-11-20T16:39:14;6.00;9.40
336;DHT22;156;48.738;9.228;2022-11-20T16:41:41;6.10;8.70
336;DHT22;156;48.738;9.228;2022-11-20T16:44:09;6.10;7.70
336;DHT22;156;48.738;9.228;2022-11-20T16:46:37;6.10;8.50
336;DHT22;156;48.738;9.228;2022-11-20T16:49:08;6.00;8.50
336;DHT22;156;48.738;9.228;2022-11-20T16:51:37;6.00;8.50
336;DHT22;156;48.738;9.228;2022-11-20T16:54:08;6.00;10.40
336;DHT22;156;48.738;9.228;2022-11-20T16:56:36;6.10;9.50
336;DHT22;156;48.738;9.228;2022-11-20T16:59:04;6.10;7.70
336;DHT22;156;48.738;9.228;2022-11-20T17:01:35;6.20;5.50
336;DHT22;156;48.738;9.228;2022-11-20T17:04:05;6.20;4.60
336;DHT22;156;48.738;9.228;2022-11-20T17:06:34;6.20;4.00
336;DHT22;156;48.738;9.228;2022-11-20T17:09:06;6.20;3.80
336;DHT22;156;48.738;9.228;2022-11-20T17:11:34;6.20;6.20
336;DHT22;156;48.738;9.228;2022-11-20T17:14:03;6.20;4.20
336;DHT22;156;48.738;9.228;2022-11-20T17:16:32;6.20;5.80
336;DHT22;156;48.738;9.228;2022-11-20T17:19:03;6.20;4.80
336;DHT22;156;48.738;9.228;2022-11-20T17:21:31;6.30;3.70
336;DHT22;156;48.738;9.228;2022-11-20T17:24:01;6.30;3.60
336;DHT22;156;48.738;9.228;2022-11-20T17:26:32;6.20;4.70
336;DHT22;156;48.738;9.228;2022-11-20T17:29:03;6.30;3.80
336;DHT22;156;48.738;9.228;2022-11-20T17:31:32;6.20;4.20
336;DHT22;156;48.738;9.228;2022-11-20T17:34:10;6.10;4.50
336;DHT22;156;48.738;9.228;2022-11-20T17:36:53;6.00;3.50
336;DHT22;156;48.738;9.228;2022-11-20T17:42:51;5.80;3.40
336;DHT22;156;48.738;9.228;2022-11-20T17:45:47;5.80;1.00
336;DHT22;156;48.738;9.228;2022-11-20T17:51:33;5.90;1.00
336;DHT22;156;48.738;9.228;2022-11-20T17:54:43;5.90;1.00
336;DHT22;156;48.738;9.228;2022-11-20T17:57:30;5.90;1.00
336;DHT22;156;48.738;9.228;2022-11-20T18:00:25;6.00;1.00
336;DHT22;156;48.738;9.228;2022-11-20T18:03:30;6.00;1.00
336;DHT22;156;48.738;9.228;2022-11-20T18:06:34;6.00;1.00
336;DHT22;156;48.738;9.228;2022-11-20T18:09:46;6.00;1.00
336;DHT22;156;48.738;9.228;2022-11-20T18:12:35;6.10;1.00
336;DHT22;156;48.738;9.228;2022-11-20T18:15:10;6.10;1.00
336;DHT22;156;48.738;9.228;2022-11-20T18:17:49;6.10;1.00
336;DHT22;156;48.738;9.228;2022-11-20T18:20:18;6.10;1.00
336;DHT22;156;48.738;9.228;2022-11-20T18:22:45;6.10;1.00
336;DHT22;156;48.738;9.228;2022-11-20T18:25:13;6.10;1.00
336;DHT22;156;48.738;9.228;2022-11-20T18:27:40;6.10;1.00
336;DHT22;156;48.738;9.228;2022-11-20T18:30:08;6.10;1.00
336;DHT22;156;48.738;9.228;2022-11-20T18:32:38;6.20;1.00
336;DHT22;156;48.738;9.228;2022-11-20T18:35:09;6.10;1.00
336;DHT22;156;48.738;9.228;2022-11-20T18:37:39;6.20;1.00
336;DHT22;156;48.738;9.228;2022-11-20T18:40:15;6.30;1.00
336;DHT22;156;48.738;9.228;2022-11-20T18:42:44;6.20;1.00
336;DHT22;156;48.738;9.228;2022-11-20T18:45:38;6.20;1.00
336;DHT22;156;48.738;9.228;2022-11-20T18:48:09;6.10;1.00
336;DHT22;156;48.738;9.228;2022-11-20T18:50:38;6.00;1.00
336;DHT22;156;48.738;9.228;2022-11-20T18:53:10;6.10;1.00
336;DHT22;156;48.738;9.228;2022-11-20T18:55:42;6.10;1.00
336;DHT22;156;48.738;9.228;2022-11-20T18:58:23;6.10;1.00
336;DHT22;156;48.738;9.228;2022-11-20T19:00:56;5.90;1.00
336;DHT22;156;48.738;9.228;2022-11-20T19:03:32;6.10;1.00
336;DHT22;156;48.738;9.228;2022-11-20T19:06:11;5.90;1.00
336;DHT22;156;48.738;9.228;2022-11-20T19:08:51;5.80;1.00
336;DHT22;156;48.738;9.228;2022-11-20T19:11:22;5.70;1.00
336;DHT22;156;48.738;9.228;2022-11-20T19:13:54;5.70;1.00
336;DHT22;156;48.738;9.228;2022-11-20T19:16:24;5.60;1.00
336;DHT22;156;48.738;9.228;2022-11-20T19:18:59;5.50;1.00
336;DHT22;156;48.738;9.228;2022-11-20T19:21:36;5.50;1.00
336;DHT22;156;48.738;9.228;2022-11-20T19:24:07;5.50;1.00
336;DHT22;156;48.738;9.228;2022-11-20T19:26:40;5.60;4.30
336;DHT22;156;48.738;9.228;2022-11-20T19:29:11;5.50;3.30
336;DHT22;156;48.738;9.228;2022-11-20T19:31:39;5.40;5.30
336;DHT22;156;48.738;9.228;2022-11-20T19:34:27;5.40;6.50
336;DHT22;156;48.738;9.228;2022-11-20T19:37:15;5.40;6.00
336;DHT22;156;48.738;9.228;2022-11-20T19:39:58;5.30;2.60
336;DHT22;156;48.738;9.228;2022-11-20T19:42:52;5.30;1.00
336;DHT22;156;48.738;9.228;2022-11-20T19:46:04;5.20;1.00
336;DHT22;156;48.738;9.228;2022-11-20T20:06:09;5.10;3.90
336;DHT22;156;48.738;9.228;2022-11-20T20:09:34;5.10;3.00
336;DHT22;156;48.738;9.228;2022-11-20T20:12:23;5.00;1.00
336;DHT22;156;48.738;9.228;2022-11-20T20:16:28;5.00;1.00
336;DHT22;156;48.738;9.228;2022-11-20T20:18:56;5.00;1.30
336;DHT22;156;48.738;9.228;2022-11-20T20:28:49;4.80;7.10
336;DHT22;156;48.738;9.228;2022-11-20T20:38:44;4.80;10.50
336;DHT22;156;48.738;9.228;2022-11-20T20:41:51;4.80;9.30
336;DHT22;156;48.738;9.228;2022-11-20T20:44:37;4.70;11.60
336;DHT22;156;48.738;9.228;2022-11-20T20:47:23;4.60;20.90
336;DHT22;156;48.738;9.228;2022-11-20T20:49:54;4.70;23.10
336;DHT22;156;48.738;9.228;2022-11-20T20:52:23;4.50;27.80
336;DHT22;156;48.738;9.228;2022-11-20T20:55:00;4.60;29.70
336;DHT22;156;48.738;9.228;2022-11-20T20:57:48;4.50;26.90
336;DHT22;156;48.738;9.228;2022-11-20T21:00:18;4.50;27.10
336;DHT22;156;48.738;9.228;2022-11-20T21:02:52;4.50;27.20
336;DHT22;156;48.738;9.228;2022-11-20T21:05:19;4.60;28.30
336;DHT22;156;48.738;9.228;2022-11-20T21:07:49;4.70;27.10
336;DHT22;156;48.738;9.228;2022-11-20T21:10:33;4.50;26.80
336;DHT22;156;48.738;9.228;2022-11-20T21:13:02;4.50;27.10
336;DHT22;156;48.738;9.228;2022-11-20T21:15:33;4.60;27.90
336;DHT22;156;48.738;9.228;2022-11-20T21:18:43;4.80;27.20
336;DHT22;156;48.738;9.228;2022-11-20T21:21:22;4.60;23.10
336;DHT22;156;48.738;9.228;2022-11-20T21:24:31;4.60;25.10
336;DHT22;156;48.738;9.228;2022-11-20T21:33:35;4.60;21.90
336;DHT22;156;48.738;9.228;2022-11-20T21:36:27;4.70;19.50
336;DHT22;156;48.738;9.228;2022-11-20T21:38:57;4.60;21.40
336;DHT22;156;48.738;9.228;2022-11-20T21:41:26;4.60;22.80
336;DHT22;156;48.738;9.228;2022-11-20T21:43:53;4.90;19.70
336;DHT22;156;48.738;9.228;2022-11-20T21:46:29;4.60;19.30
336;DHT22;156;48.738;9.228;2022-11-20T21:49:21;4.60;19.70
336;DHT22;156;48.738;9.228;2022-11-20T21:52:15;4.60;20.80
336;DHT22;156;48.738;9.228;2022-11-20T21:58:14;4.60;20.40
336;DHT22;156;48.738;9.228;2022-11-20T22:00:50;4.60;20.20
336;DHT22;156;48.738;9.228;2022-11-20T22:03:22;4.60;22.10
336;DHT22;156;48.738;9.228;2022-11-20T22:05:54;4.70;20.90
336;DHT22;156;48.738;9.228;2022-11-20T22:08:40;4.70;18.20
336;DHT22;156;48.738;9.228;2022-11-20T22:11:08;4.80;18.50
336;DHT22;156;48.738;9.228;2022-11-20T22:13:35;4.70;20.10
336;DHT22;156;48.738;9.228;2022-11-20T22:16:20;4.80;22.20
336;DHT22;156;48.738;9.228;2022-11-20T22:18:49;4.80;23.10
336;DHT22;156;48.738;9.228;2022-11-20T22:21:19;4.70;25.00
336;DHT22;156;48.738;9.228;2022-11-20T22:23:46;4.70;28.00
336;DHT22;156;48.738;9.228;2022-11-20T22:26:15;4.70;29.80
336;DHT22;156;48.738;9.228;2022-11-20T22:28:44;4.70;35.90
336;DHT22;156;48.738;9.228;2022-11-20T22:31:11;4.60;40.50
336;DHT22;156;48.738;9.228;2022-11-20T22:33:38;4.60;43.70
336;DHT22;156;48.738;9.228;2022-11-20T22:36:07;4.70;43.70
336;DHT22;156;48.738;9.228;2022-11-20T22:38:36;4.60;46.60
336;DHT22;156;48.738;9.228;2022-11-20T22:41:05;4.60;49.50
336;DHT22;156;48.738;9.228;2022-11-20T22:43:32;4.70;53.30
336;DHT22;156;48.738;9.228;2022-11-20T22:46:02;4.70;53.20
336;DHT22;156;48.738;9.228;2022-11-20T22:48:30;4.60;52.80
336;DHT22;156;48.738;9.228;2022-11-20T22:51:01;4.70;51.40
336;DHT22;156;48.738;9.228;2022-11-20T22:53:28;4.60;54.40
336;DHT22;156;48.738;9.228;2022-11-20T22:55:57;4.60;56.50
336;DHT22;156;48.738;9.228;2022-11-20T22:58:24;4.50;66.80
336;DHT22;156;48.738;9.228;2022-11-20T23:00:52;4.40;73.20
336;DHT22;156;48.738;9.228;2022-11-20T23:03:19;4.40;78.20
336;DHT22;156;48.738;9.228;2022-11-20T23:05:46;4.30;78.00
336;DHT22;156;48.738;9.228;2022-11-20T23:08:13;4.30;80.40
336;DHT22;156;48.738;9.228;2022-11-20T23:10:40;4.40;73.40
336;DHT22;156;48.738;9.228;2022-11-20T23:13:08;4.40;73.40
336;DHT22;156;48.738;9.228;2022-11-20T23:15:35;4.40;72.80
336;DHT22;156;48.738;9.228;2022-11-20T23:18:04;4.40;70.60
336;DHT22;156;48.738;9.228;2022-11-20T23:20:34;4.50;67.60
336;DHT22;156;48.738;9.228;2022-11-20T23:23:06;4.40;67.10
336;DHT22;156;48.738;9.228;2022-11-20T23:25:34;4.40;67.80
336;DHT22;156;48.738;9.228;2022-11-20T23:28:19;4.40;66.90
336;DHT22;156;48.738;9.228;2022-11-20T23:30:49;4.40;66.20
336;DHT22;156;48.738;9.228;2022-11-20T23:33:20;4.40;61.50
336;DHT22;156;48.738;9.228;2022-11-20T23:35:52;4.40;61.70
336;DHT22;156;48.738;9.228;2022-11-20T23:41:53;4.40;62.10
336;DHT22;156;48.738;9.228;2022-11-20T23:48:04;4.50;64.10
336;DHT22;156;48.738;9.228;2022-11-20T23:50:44;4.50;67.50
336;DHT22;156;48.738;9.228;2022-11-20T23:53:43;4.50;68.90
336;DHT22;156;48.738;9.228;2022-11-20T23:56:38;4.60;70.50
336;DHT22;156;48.738;9.228;2022-11-20T23:59:42;4.60;70.00
